Mayfield, Idaho
Current Conditions -  °F | °C
As of 12:53 AM on Sunday 26 Oct 2014 (Local Time) from KBOI Reporting Station
Overcast Overcast  
Wind Chill: 58°   Ceiling: 8000
Heat Index: 58°   Visibility: 10mi
Dew Point: 36°   Wind: 8mph
Humidity: 44%   Direction: 270°W
Pressure: 29.91"   Gusts: NA
Location:  43.5418°N, 116.118°W
Report Text: KBOI 260653Z 27007KT 10SM BKN080 OVC100 14/02 A2991 RMK AO2 SLP111 T01440022 402560050
Loading
Personal Weather Stations






























Interactive Weather Map
Tropical Storm Tracking
New forecast layout! Learn more

10-Day Weather Forecast

Advertisements
Track Severe Weather on mobile